Time;durP1;ratioP1;P1;durP2;ratioP2;P2;SDS_P1;SDS_P2;PMS_P1;PMS_P2;Temp;Humidity;BMP_temperature;BMP_pressure;BME280_temperature;BME280_humidity;BME280_pressure;Samples;Min_cycle;Max_cycle;Signal;HPM_P1;HPM_P2
2023/04/12 00:02:05;;;;;;;10.48;2.85;;;10.90;99.90;;;;;;4975154;28;20097;-90
2023/04/12 00:04:33;;;;;;;7.05;2.17;;;11.90;99.90;;;;;;4974738;28;20042;-90
2023/04/12 00:06:59;;;;;;;10.18;2.97;;;11.00;99.90;;;;;;4975191;28;20030;-90
2023/04/12 00:09:31;;;;;;;5.72;2.60;;;10.90;99.90;;;;;;4975075;28;20497;-91
2023/04/12 00:12:00;;;;;;;2.85;1.90;;;11.90;99.90;;;;;;4975551;28;20027;-90
2023/04/12 00:14:26;;;;;;;4.18;2.10;;;10.90;99.90;;;;;;4975280;28;20090;-90
2023/04/12 00:17:03;;;;;;;7.32;2.38;;;11.00;99.90;;;;;;4974104;28;20027;-91
2023/04/12 00:19:41;;;;;;;4.53;2.15;;;11.80;99.90;;;;;;4975515;28;20439;-90
2023/04/12 00:22:11;;;;;;;6.07;2.20;;;11.90;99.90;;;;;;4975216;28;20475;-92
2023/04/12 00:24:42;;;;;;;5.70;1.80;;;11.00;99.90;;;;;;4974142;28;20033;-90
2023/04/12 00:27:10;;;;;;;7.35;2.08;;;11.50;99.90;;;;;;4975271;28;20097;-91
2023/04/12 00:29:36;;;;;;;3.92;1.80;;;11.60;99.90;;;;;;4974555;28;20035;-90
2023/04/12 00:32:07;;;;;;;4.80;2.08;;;11.80;99.90;;;;;;4975010;28;20030;-91
2023/04/12 00:34:33;;;;;;;5.55;1.70;;;10.20;99.90;;;;;;4975192;28;20546;-90
2023/04/12 00:37:00;;;;;;;5.90;1.73;;;10.60;99.90;;;;;;4974241;28;20122;-90
2023/04/12 00:39:26;;;;;;;6.47;1.52;;;11.60;99.90;;;;;;4974811;28;20030;-90
2023/04/12 00:42:04;;;;;;;2.58;1.40;;;11.50;99.90;;;;;;4975041;28;20442;-90
2023/04/12 00:44:33;;;;;;;5.47;1.92;;;10.60;99.90;;;;;;4974445;28;20073;-91
2023/04/12 00:46:59;;;;;;;4.88;1.25;;;11.60;99.90;;;;;;4974880;28;20569;-89
2023/04/12 00:49:29;;;;;;;6.75;1.33;;;11.90;99.90;;;;;;4974926;28;20411;-90
2023/04/12 00:52:07;;;;;;;4.35;1.13;;;11.20;99.90;;;;;;4974462;28;20166;-91
2023/04/12 00:54:33;;;;;;;2.10;1.17;;;10.50;99.90;;;;;;4974525;28;20034;-90
2023/04/12 00:57:13;;;;;;;2.28;1.17;;;10.60;99.90;;;;;;4974324;28;20050;-90
2023/04/12 00:59:50;;;;;;;3.88;1.55;;;10.10;99.90;;;;;;4973491;28;20035;-91
2023/04/12 01:02:22;;;;;;;4.95;1.10;;;11.50;99.90;;;;;;4974443;28;20031;-91
2023/04/12 01:04:50;;;;;;;3.70;1.40;;;11.30;99.90;;;;;;4974185;28;20023;-90
2023/04/12 01:07:36;;;;;;;3.95;1.40;;;11.70;99.90;;;;;;4972687;28;20491;-91
2023/04/12 01:10:21;;;;;;;2.47;1.30;;;10.50;99.90;;;;;;4974158;28;20138;-90
2023/04/12 01:12:55;;;;;;;3.58;1.17;;;10.50;99.90;;;;;;4979769;28;20034;-90
2023/04/12 01:15:23;;;;;;;5.47;1.10;;;10.50;99.90;;;;;;4974625;28;20480;-90
2023/04/12 01:18:24;;;;;;;1.77;0.95;;;10.50;99.90;;;;;;4974287;28;20039;-92
2023/04/12 01:20:53;;;;;;;;;;;10.40;99.90;;;;;;4960659;28;20460;-91
2023/04/12 01:23:45;;;;;;;2.75;1.13;;;10.40;99.90;;;;;;4974821;28;19906;-92
2023/04/12 01:26:22;;;;;;;2.83;1.20;;;10.50;99.90;;;;;;4978571;28;20062;-92
2023/04/12 01:28:51;;;;;;;2.78;1.60;;;10.40;99.90;;;;;;4983307;28;20023;-91
2023/04/12 01:31:19;;;;;;;4.80;1.00;;;10.30;99.90;;;;;;4974527;28;20031;-90
2023/04/12 01:33:46;;;;;;;3.78;1.17;;;10.40;99.90;;;;;;4973852;28;20110;-91
2023/04/12 01:36:15;;;;;;;3.92;1.27;;;10.40;99.90;;;;;;4974591;28;20035;-91
2023/04/12 01:38:42;;;;;;;2.05;1.02;;;10.50;99.90;;;;;;4974040;28;20098;-92
2023/04/12 01:41:08;;;;;;;2.28;0.73;;;10.40;99.90;;;;;;4973960;28;20023;-91
2023/04/12 01:43:42;;;;;;;5.25;1.33;;;10.40;99.90;;;;;;4974146;28;20038;-91
2023/04/12 01:46:10;;;;;;;3.20;1.10;;;10.40;99.90;;;;;;4974783;28;20364;-91
2023/04/12 01:48:36;;;;;;;3.72;1.10;;;10.40;99.90;;;;;;4973717;28;20027;-92
2023/04/12 01:51:11;;;;;;;2.63;1.17;;;10.40;99.90;;;;;;4974825;28;20030;-91
2023/04/12 01:54:01;;;;;;;5.45;1.20;;;10.40;99.90;;;;;;4974417;28;20031;-91
2023/04/12 01:56:29;;;;;;;3.60;1.65;;;10.30;99.90;;;;;;4976155;28;20039;-90
2023/04/12 01:58:56;;;;;;;2.40;1.02;;;10.20;99.90;;;;;;4974770;28;20414;-91
2023/04/12 02:01:24;;;;;;;3.05;1.30;;;10.40;99.90;;;;;;4975063;28;20030;-89
2023/04/12 02:03:50;;;;;;;2.92;1.13;;;10.40;99.90;;;;;;4975130;28;20175;-90
2023/04/12 02:06:21;;;;;;;2.83;1.08;;;10.40;99.90;;;;;;4974176;28;20051;-90
2023/04/12 02:08:47;;;;;;;2.00;1.10;;;10.40;99.90;;;;;;4973000;28;20037;-90
2023/04/12 02:11:13;;;;;;;1.77;0.98;;;10.30;99.90;;;;;;4974309;28;20110;-91
2023/04/12 02:13:39;;;;;;;7.32;1.60;;;10.30;99.90;;;;;;4974118;28;20082;-90
2023/04/12 02:16:06;;;;;;;3.40;1.23;;;10.30;99.90;;;;;;4974947;28;20121;-90
2023/04/12 02:18:34;;;;;;;2.60;1.30;;;10.20;99.90;;;;;;4977939;28;20057;-91
2023/04/12 02:21:00;;;;;;;4.13;1.38;;;10.30;99.90;;;;;;4982784;28;20439;-91
2023/04/12 02:23:25;;;;;;;5.25;1.42;;;10.40;99.90;;;;;;4982597;28;20050;-90
2023/04/12 02:25:51;;;;;;;3.33;1.20;;;10.50;99.90;;;;;;4982037;28;20029;-91
2023/04/12 02:28:17;;;;;;;2.30;1.08;;;10.40;99.90;;;;;;4977530;28;20034;-91
2023/04/12 02:30:42;;;;;;;2.60;1.27;;;10.30;99.90;;;;;;4976697;28;20487;-91
2023/04/12 02:33:08;;;;;;;2.55;1.40;;;10.30;99.90;;;;;;4977400;28;20498;-90
2023/04/12 02:35:37;;;;;;;2.20;1.17;;;10.40;99.90;;;;;;4976986;28;20038;-92
2023/04/12 02:38:06;;;;;;;2.40;1.50;;;10.30;99.90;;;;;;4976656;28;20114;-91
2023/04/12 02:40:33;;;;;;;4.95;1.35;;;10.40;99.90;;;;;;4976648;28;20026;-90
2023/04/12 02:42:59;;;;;;;4.60;1.63;;;10.40;99.90;;;;;;4977096;28;20034;-91
2023/04/12 02:45:25;;;;;;;4.38;1.65;;;10.40;99.90;;;;;;4976704;28;20023;-91
2023/04/12 02:47:50;;;;;;;2.92;1.45;;;10.30;99.90;;;;;;4977088;28;20093;-90
2023/04/12 02:50:16;;;;;;;3.92;1.30;;;11.50;99.90;;;;;;4977128;28;20018;-91
2023/04/12 02:52:41;;;;;;;2.70;1.20;;;10.40;99.90;;;;;;4976212;28;20039;-91
2023/04/12 02:55:07;;;;;;;4.55;1.88;;;10.40;99.90;;;;;;4977087;28;20030;-92
2023/04/12 02:57:33;;;;;;;3.95;1.27;;;10.30;99.90;;;;;;4976205;28;20047;-91
2023/04/12 02:59:58;;;;;;;5.18;1.33;;;10.20;99.90;;;;;;4976854;28;20026;-92
2023/04/12 03:02:24;;;;;;;2.97;1.33;;;10.20;99.90;;;;;;4976814;28;20030;-90
2023/04/12 03:04:50;;;;;;;4.32;1.40;;;10.20;99.90;;;;;;4976043;28;20034;-91
2023/04/12 03:07:17;;;;;;;4.18;1.58;;;10.20;99.90;;;;;;4976650;28;20118;-91
2023/04/12 03:09:44;;;;;;;5.45;1.20;;;10.20;99.90;;;;;;4976692;28;20030;-92
2023/04/12 03:12:09;;;;;;;2.75;1.25;;;10.20;99.90;;;;;;4975867;28;20034;-91
2023/04/12 03:14:35;;;;;;;2.85;1.30;;;10.20;99.90;;;;;;4976462;28;20022;-91
2023/04/12 03:17:00;;;;;;;3.03;1.67;;;10.20;99.90;;;;;;4976799;28;20035;-91
2023/04/12 03:19:27;;;;;;;2.25;1.40;;;10.20;99.90;;;;;;4976083;28;20023;-91
2023/04/12 03:21:53;;;;;;;3.60;1.50;;;10.20;99.90;;;;;;4976419;28;20031;-93
2023/04/12 03:24:19;;;;;;;3.88;1.20;;;10.10;99.90;;;;;;4976950;28;20034;-92
2023/04/12 03:26:45;;;;;;;4.47;1.08;;;10.20;99.90;;;;;;4975966;28;20038;-91
2023/04/12 03:29:10;;;;;;;2.10;1.20;;;10.10;99.90;;;;;;4976385;28;20475;-92
2023/04/12 03:31:36;;;;;;;7.70;2.70;;;10.20;99.90;;;;;;4976125;28;20157;-91
2023/04/12 03:34:02;;;;;;;4.22;2.20;;;10.20;99.90;;;;;;4975510;28;20022;-90
2023/04/12 03:36:28;;;;;;;5.88;1.50;;;10.10;99.90;;;;;;4976175;28;20502;-91
2023/04/12 03:38:54;;;;;;;4.45;1.50;;;10.00;99.90;;;;;;4975806;28;20034;-91
2023/04/12 03:41:24;;;;;;;3.15;1.08;;;10.10;99.90;;;;;;4975754;28;20411;-91
2023/04/12 03:43:50;;;;;;;2.15;1.20;;;10.10;99.90;;;;;;4976371;28;20037;-91
2023/04/12 03:46:15;;;;;;;3.33;1.30;;;10.20;99.90;;;;;;4976311;28;20379;-91
2023/04/12 03:48:41;;;;;;;5.30;1.42;;;10.80;99.90;;;;;;4975290;28;20030;-91
2023/04/12 03:51:10;;;;;;;3.03;1.13;;;10.20;99.90;;;;;;4976741;28;20034;-91
2023/04/12 03:53:37;;;;;;;4.75;1.45;;;10.20;99.90;;;;;;4976039;28;20090;-91
2023/04/12 03:56:02;;;;;;;3.10;1.67;;;10.20;99.90;;;;;;4975408;28;20023;-91
2023/04/12 03:58:28;;;;;;;3.03;1.15;;;10.20;99.90;;;;;;4975982;28;20058;-92
2023/04/12 04:00:54;;;;;;;3.42;1.10;;;10.40;99.90;;;;;;4975178;28;20114;-91
2023/04/12 04:03:21;;;;;;;3.28;1.20;;;10.30;99.90;;;;;;4976599;28;20387;-92
2023/04/12 04:05:47;;;;;;;2.80;1.02;;;10.20;99.90;;;;;;4975560;28;20382;-92
2023/04/12 04:08:12;;;;;;;3.13;1.40;;;10.10;99.90;;;;;;4975160;28;20019;-92
2023/04/12 04:10:38;;;;;;;2.65;1.25;;;10.10;99.90;;;;;;4975798;28;20046;-91
2023/04/12 04:13:04;;;;;;;4.50;1.13;;;10.20;99.90;;;;;;4976713;28;20086;-92
2023/04/12 04:15:29;;;;;;;4.65;1.20;;;10.10;99.90;;;;;;4975418;28;20113;-92
2023/04/12 04:17:55;;;;;;;2.95;1.30;;;10.20;99.90;;;;;;4975478;28;20035;-92
2023/04/12 04:20:21;;;;;;;2.50;1.33;;;10.20;99.90;;;;;;4975322;28;20490;-90
2023/04/12 04:22:47;;;;;;;3.65;1.30;;;10.10;99.90;;;;;;4974852;28;20030;-91
2023/04/12 04:25:13;;;;;;;2.35;1.20;;;10.20;99.90;;;;;;4975561;28;20026;-91
2023/04/12 04:27:40;;;;;;;1.08;0.98;;;10.20;99.90;;;;;;4975411;28;20110;-92
2023/04/12 04:30:06;;;;;;;1.52;1.10;;;10.10;99.90;;;;;;4974440;28;20105;-93
2023/04/12 04:32:32;;;;;;;1.55;0.95;;;10.20;99.90;;;;;;4974645;28;20033;-93
2023/04/12 04:34:58;;;;;;;1.95;1.27;;;10.20;99.90;;;;;;4975385;28;20015;-92
2023/04/12 04:37:25;;;;;;;1.88;1.10;;;10.20;99.90;;;;;;4977407;28;20039;-92
2023/04/12 04:39:50;;;;;;;2.05;1.20;;;10.20;99.90;;;;;;4974805;28;20569;-92
2023/04/12 04:42:16;;;;;;;2.00;1.00;;;10.10;99.90;;;;;;4975065;28;20491;-93
2023/04/12 04:44:42;;;;;;;2.08;1.00;;;10.20;99.90;;;;;;4974084;28;20026;-91
2023/04/12 04:47:08;;;;;;;2.80;1.13;;;10.30;99.90;;;;;;4975045;28;20089;-91
2023/04/12 04:49:35;;;;;;;2.00;1.02;;;10.20;99.90;;;;;;4975253;28;20447;-93
2023/04/12 04:52:01;;;;;;;4.43;1.73;;;10.30;99.90;;;;;;4974713;28;20033;-91
2023/04/12 04:54:27;;;;;;;2.47;1.33;;;10.20;99.90;;;;;;4975108;28;20027;-92
2023/04/12 04:56:52;;;;;;;1.23;1.10;;;10.20;99.90;;;;;;4976019;28;20038;-91
2023/04/12 04:59:19;;;;;;;1.85;1.20;;;10.30;99.90;;;;;;4976173;28;20027;-92
2023/04/12 05:01:45;;;;;;;2.53;1.55;;;10.40;99.90;;;;;;4975745;28;20038;-91
2023/04/12 05:04:10;;;;;;;1.77;1.23;;;10.40;99.90;;;;;;4975023;28;20023;-92
2023/04/12 05:06:36;;;;;;;3.85;1.38;;;10.40;99.90;;;;;;4974856;28;20030;-91
2023/04/12 05:09:02;;;;;;;2.42;1.50;;;10.50;99.90;;;;;;4974810;28;20029;-92
2023/04/12 05:11:28;;;;;;;2.47;1.67;;;10.40;99.90;;;;;;4977567;28;20039;-92
2023/04/12 05:13:53;;;;;;;2.88;1.65;;;10.40;99.90;;;;;;4979795;28;20081;-91
2023/04/12 05:16:19;;;;;;;2.28;1.60;;;10.40;99.90;;;;;;4974057;28;20023;-92
2023/04/12 05:18:45;;;;;;;2.90;1.30;;;10.40;99.90;;;;;;4977217;28;20065;-93
2023/04/12 05:21:10;;;;;;;1.73;1.60;;;10.70;99.90;;;;;;4974430;28;20044;-92
2023/04/12 05:23:41;;;;;;;2.85;1.70;;;10.50;99.90;;;;;;4977961;28;20027;-91
2023/04/12 05:26:07;;;;;;;2.55;1.65;;;10.40;99.90;;;;;;4974986;28;20023;-91
2023/04/12 05:28:33;;;;;;;2.75;1.80;;;10.40;99.90;;;;;;4975683;28;20093;-90
2023/04/12 05:30:58;;;;;;;3.97;1.98;;;10.40;99.90;;;;;;4978218;28;20018;-91
2023/04/12 05:33:24;;;;;;;3.72;1.95;;;10.50;99.90;;;;;;4979208;28;20035;-89
2023/04/12 05:35:50;;;;;;;2.50;1.90;;;10.50;99.90;;;;;;4981118;28;20027;-91
2023/04/12 05:38:15;;;;;;;2.03;1.92;;;10.50;99.90;;;;;;4981382;28;20122;-90
2023/04/12 05:40:42;;;;;;;3.53;2.17;;;10.50;99.90;;;;;;4974140;28;20056;-92
2023/04/12 05:43:11;;;;;;;3.15;2.33;;;10.50;99.90;;;;;;4974772;28;20027;-92
2023/04/12 05:45:40;;;;;;;3.72;2.50;;;11.50;99.90;;;;;;4974843;28;20408;-90
2023/04/12 05:48:06;;;;;;;3.17;2.55;;;10.60;99.90;;;;;;4974353;28;20078;-92
2023/04/12 05:50:32;;;;;;;3.65;2.95;;;10.50;99.90;;;;;;4975354;28;20022;-93
2023/04/12 05:53:00;;;;;;;4.90;2.90;;;10.60;99.90;;;;;;4991191;28;20435;-92
2023/04/12 05:55:26;;;;;;;3.78;3.05;;;10.70;99.90;;;;;;4977931;28;20031;-93
2023/04/12 05:57:51;;;;;;;3.80;2.90;;;11.40;99.90;;;;;;4977701;28;20565;-92
2023/04/12 06:00:18;;;;;;;9.10;3.50;;;10.60;99.90;;;;;;4978066;28;20031;-91
2023/04/12 06:02:45;;;;;;;4.55;3.25;;;10.60;99.90;;;;;;4978148;28;20445;-92
2023/04/12 06:05:11;;;;;;;3.97;3.45;;;10.60;99.90;;;;;;4977773;28;20019;-91
2023/04/12 06:07:38;;;;;;;8.32;3.65;;;11.00;99.90;;;;;;4977323;28;20423;-92
2023/04/12 06:10:06;;;;;;;8.02;3.60;;;10.60;99.90;;;;;;4978526;28;20467;-92
2023/04/12 06:12:31;;;;;;;7.32;4.28;;;10.60;99.90;;;;;;4977448;28;20031;-91
2023/04/12 06:14:57;;;;;;;8.23;3.38;;;10.60;99.90;;;;;;4977506;28;20025;-93
2023/04/12 06:17:23;;;;;;;9.10;4.63;;;11.20;99.90;;;;;;4977716;28;20047;-92
2023/04/12 06:19:48;;;;;;;8.43;4.18;;;10.60;99.90;;;;;;4977637;28;20040;-92
2023/04/12 06:22:14;;;;;;;13.07;3.90;;;10.60;99.90;;;;;;4987520;28;20023;-90
2023/04/12 06:24:40;;;;;;;7.30;3.88;;;10.60;99.90;;;;;;4976784;28;20035;-91
2023/04/12 06:27:06;;;;;;;12.73;4.20;;;10.60;99.90;;;;;;4976829;28;20110;-91
2023/04/12 06:29:31;;;;;;;8.38;3.67;;;11.50;99.90;;;;;;4977162;28;20026;-90
2023/04/12 06:31:57;;;;;;;6.00;3.53;;;10.70;99.90;;;;;;4976233;28;20391;-92
2023/04/12 06:34:23;;;;;;;11.45;3.75;;;11.20;99.90;;;;;;4975828;28;20022;-89
2023/04/12 06:36:48;;;;;;;12.98;3.80;;;10.70;99.90;;;;;;4981522;28;20042;-91
2023/04/12 06:39:15;;;;;;;17.48;4.80;;;10.70;99.90;;;;;;4976770;28;20019;-91
2023/04/12 06:41:42;;;;;;;13.25;4.20;;;10.90;99.90;;;;;;4976768;28;20023;-90
2023/04/12 06:44:08;;;;;;;15.93;4.00;;;10.90;99.90;;;;;;4986847;28;20022;-90
2023/04/12 06:46:34;;;;;;;12.88;4.13;;;11.80;99.90;;;;;;4987996;28;20022;-93
2023/04/12 06:49:00;;;;;;;16.00;4.00;;;10.90;99.90;;;;;;4985310;28;20110;-90
2023/04/12 06:51:49;;;;;;;8.45;3.08;;;11.00;99.90;;;;;;4994933;28;20513;-91
2023/04/12 06:54:14;;;;;;;13.60;3.25;;;11.10;99.90;;;;;;4985885;28;20034;-90
2023/04/12 06:56:39;;;;;;;14.13;3.63;;;10.90;99.90;;;;;;4987497;28;20546;-91
2023/04/12 06:59:05;;;;;;;13.02;3.80;;;11.00;99.90;;;;;;4983307;28;20054;-91
2023/04/12 07:01:31;;;;;;;12.90;2.95;;;11.30;99.90;;;;;;4976622;28;20077;-90
2023/04/12 07:03:56;;;;;;;18.48;4.00;;;11.00;99.90;;;;;;4976225;28;20387;-92
2023/04/12 07:06:22;;;;;;;14.13;3.35;;;11.00;99.90;;;;;;4976829;28;20029;-91
2023/04/12 07:08:48;;;;;;;18.42;3.08;;;10.90;99.90;;;;;;4976699;28;20030;-92
2023/04/12 07:11:14;;;;;;;15.55;3.40;;;11.70;99.90;;;;;;4976093;28;20031;-91
2023/04/12 07:13:39;;;;;;;13.55;3.28;;;11.00;99.90;;;;;;4977171;28;20034;-91
2023/04/12 07:16:05;;;;;;;22.80;4.13;;;11.10;99.90;;;;;;4990670;28;20483;-93
2023/04/12 07:18:31;;;;;;;19.58;4.60;;;11.00;99.90;;;;;;4976185;28;20046;-91
2023/04/12 07:20:57;;;;;;;25.40;3.60;;;11.00;99.90;;;;;;4976498;28;20069;-90
2023/04/12 07:23:24;;;;;;;20.90;3.67;;;11.90;99.90;;;;;;4991684;28;20059;-92
2023/04/12 07:25:50;;;;;;;14.00;3.03;;;11.10;99.90;;;;;;4995965;28;20475;-92
2023/04/12 07:28:16;;;;;;;15.98;3.35;;;11.40;99.90;;;;;;4996547;28;20026;-92
2023/04/12 07:30:42;;;;;;;33.17;4.38;;;11.10;99.90;;;;;;4996376;28;20378;-91
2023/04/12 07:33:07;;;;;;;22.85;4.38;;;11.20;99.90;;;;;;4996177;28;20109;-90
2023/04/12 07:35:33;;;;;;;24.10;3.60;;;11.90;99.90;;;;;;4985230;28;20022;-92
2023/04/12 07:38:00;;;;;;;31.52;5.38;;;11.10;99.90;;;;;;4976331;28;20035;-91
2023/04/12 07:40:26;;;;;;;25.90;4.47;;;11.10;99.90;;;;;;4976394;28;20494;-89
2023/04/12 07:42:51;;;;;;;14.77;3.50;;;11.10;99.90;;;;;;4976301;28;20038;-91
2023/04/12 07:45:18;;;;;;;29.27;4.50;;;11.50;99.90;;;;;;4975998;28;20026;-93
2023/04/12 07:47:44;;;;;;;24.20;4.07;;;11.10;99.90;;;;;;4975777;28;20386;-92
2023/04/12 07:50:10;;;;;;;24.35;3.72;;;11.10;99.90;;;;;;4975382;28;20026;-90
2023/04/12 07:52:36;;;;;;;26.80;3.97;;;11.00;99.90;;;;;;4971470;28;20035;-91
2023/04/12 07:55:01;;;;;;;25.40;4.28;;;11.10;99.90;;;;;;4972661;28;20035;-91
2023/04/12 07:57:27;;;;;;;25.17;4.10;;;11.60;99.90;;;;;;4974289;28;20074;-93
2023/04/12 07:59:52;;;;;;;17.52;3.40;;;11.20;99.90;;;;;;4986556;28;20051;-94
2023/04/12 08:02:23;;;;;;;20.35;3.97;;;11.20;99.90;;;;;;4975863;28;20019;-90
2023/04/12 08:04:53;;;;;;;30.08;4.45;;;11.30;99.90;;;;;;4973477;28;20093;-90
2023/04/12 08:07:21;;;;;;;22.83;3.95;;;11.30;99.90;;;;;;4972805;28;20483;-90
2023/04/12 08:09:47;;;;;;;24.33;4.78;;;11.30;99.90;;;;;;4973575;28;20083;-89
2023/04/12 08:12:17;;;;;;;28.60;5.35;;;11.40;99.90;;;;;;4979939;28;20141;-91
2023/04/12 08:14:43;;;;;;;27.83;3.63;;;11.80;99.90;;;;;;4970488;28;20295;-89
2023/04/12 08:17:15;;;;;;;25.60;3.83;;;11.40;99.90;;;;;;4972721;28;20045;-90
2023/04/12 08:19:59;;;;;;;27.48;4.70;;;11.70;99.90;;;;;;4967667;28;20356;-89
2023/04/12 08:22:25;;;;;;;21.50;3.83;;;12.20;99.90;;;;;;4973256;28;20035;-94
2023/04/12 08:24:50;;;;;;;24.05;4.47;;;12.10;99.90;;;;;;4994362;28;20538;-91
2023/04/12 08:27:16;;;;;;;12.80;3.33;;;12.30;99.90;;;;;;4983319;28;20098;-90
2023/04/12 08:29:47;;;;;;;28.38;3.83;;;11.50;99.90;;;;;;4958272;29;20391;-91
2023/04/12 08:32:26;;;;;;;;;;;;;;;;;;;;;
2023/04/12 08:34:51;;;;;;;22.77;4.30;;;11.50;99.90;;;;;;4921636;29;20035;-92
2023/04/12 08:37:29;;;;;;;19.08;3.50;;;12.30;99.90;;;;;;4955108;29;20131;-92
2023/04/12 08:40:08;;;;;;;21.40;3.60;;;12.10;99.90;;;;;;4964120;28;20035;-92
2023/04/12 08:42:52;;;;;;;26.50;3.55;;;11.60;99.90;;;;;;4955102;29;20074;-92
2023/04/12 08:45:20;;;;;;;21.52;3.55;;;11.60;99.90;;;;;;4962880;28;20478;-92
2023/04/12 08:48:04;;;;;;;21.63;4.43;;;12.50;99.90;;;;;;4978302;28;20050;-92
2023/04/12 08:50:36;;;;;;;13.18;2.97;;;12.30;99.90;;;;;;4976164;28;20038;-91
2023/04/12 08:53:02;;;;;;;20.48;3.42;;;12.00;99.90;;;;;;4975130;28;20097;-92
2023/04/12 08:55:36;;;;;;;28.90;3.80;;;12.40;99.90;;;;;;4974450;28;20498;-91
2023/04/12 08:58:28;;;;;;;26.38;5.13;;;12.30;99.90;;;;;;4984412;28;20141;-91
2023/04/12 09:00:54;;;;;;;29.13;3.78;;;10.90;99.90;;;;;;4992742;28;20041;-94
2023/04/12 09:03:28;;;;;;;17.85;3.50;;;12.40;99.90;;;;;;4992115;28;20034;-92
2023/04/12 09:05:54;;;;;;;27.23;3.33;;;12.70;99.90;;;;;;4987853;28;20053;-93
2023/04/12 09:08:23;;;;;;;17.33;3.38;;;11.70;99.90;;;;;;4971599;28;20471;-89
2023/04/12 09:10:49;;;;;;;30.38;3.83;;;12.60;99.90;;;;;;4970530;28;20027;-90
2023/04/12 09:13:35;;;;;;;22.42;4.60;;;11.80;99.90;;;;;;4972220;28;20539;-90
2023/04/12 09:16:02;;;;;;;19.00;3.05;;;11.80;99.90;;;;;;4973390;28;20027;-91
2023/04/12 09:18:27;;;;;;;17.95;3.33;;;11.70;99.90;;;;;;4973554;28;20562;-90
2023/04/12 09:21:07;;;;;;;22.88;3.55;;;11.80;99.90;;;;;;4973663;28;20046;-90
2023/04/12 09:23:35;;;;;;;15.05;3.70;;;11.90;99.90;;;;;;4971741;28;20047;-91
2023/04/12 09:26:00;;;;;;;20.60;3.78;;;11.90;99.90;;;;;;4975062;28;20046;-89
2023/04/12 09:28:27;;;;;;;24.23;3.60;;;11.90;99.90;;;;;;4977870;28;20498;-89
2023/04/12 09:30:54;;;;;;;18.98;3.42;;;12.60;99.90;;;;;;4977893;28;20360;-89
2023/04/12 09:33:23;;;;;;;21.35;3.67;;;12.00;99.90;;;;;;4977032;28;20031;-91
2023/04/12 09:35:49;;;;;;;27.50;3.88;;;12.00;99.90;;;;;;4977008;28;20134;-89
2023/04/12 09:38:15;;;;;;;29.55;3.97;;;12.00;99.90;;;;;;4977570;28;20038;-92
2023/04/12 09:40:43;;;;;;;24.15;3.70;;;12.00;99.90;;;;;;4978689;28;20497;-91
2023/04/12 09:43:09;;;;;;;26.92;4.72;;;12.10;99.90;;;;;;4976836;28;20042;-90
2023/04/12 09:45:39;;;;;;;21.65;3.40;;;12.10;99.90;;;;;;4977217;28;20105;-90
2023/04/12 09:48:06;;;;;;;27.00;4.10;;;12.10;99.90;;;;;;4978990;28;20034;-92
2023/04/12 09:50:32;;;;;;;22.70;3.70;;;12.00;99.90;;;;;;4978519;28;20293;-92
2023/04/12 09:53:00;;;;;;;20.08;4.05;;;12.10;99.90;;;;;;4977934;28;20030;-94
2023/04/12 09:55:30;;;;;;;24.45;3.92;;;12.00;99.90;;;;;;4978607;28;20113;-95
2023/04/12 09:58:00;;;;;;;;;;;12.10;99.90;;;;;;4987191;28;20051;-93
2023/04/12 10:00:30;;;;;;;21.52;2.88;;;12.10;99.90;;;;;;4978608;28;20332;-95
2023/04/12 10:02:56;;;;;;;25.17;4.28;;;11.80;99.90;;;;;;4984942;28;20035;-88
2023/04/12 10:05:25;;;;;;;26.10;4.28;;;11.70;99.90;;;;;;4976158;28;20046;-91
2023/04/12 10:07:51;;;;;;;16.15;4.28;;;12.20;99.90;;;;;;4977464;28;20518;-91
2023/04/12 10:10:26;;;;;;;19.83;3.80;;;12.10;99.90;;;;;;4987206;28;20049;-91
2023/04/12 10:12:52;;;;;;;30.55;4.10;;;12.90;99.90;;;;;;4976090;28;20033;-91
2023/04/12 10:15:19;;;;;;;29.77;4.45;;;12.70;99.90;;;;;;4974798;28;20102;-90
2023/04/12 10:18:01;;;;;;;24.38;3.35;;;12.10;99.90;;;;;;4987661;28;20034;-91
2023/04/12 10:20:27;;;;;;;29.83;4.43;;;12.20;99.90;;;;;;4994055;28;20022;-93
2023/04/12 10:23:09;;;;;;;22.83;4.10;;;12.00;99.90;;;;;;4993500;28;20056;-91
2023/04/12 10:28:22;;;;;;;15.25;3.50;;;12.10;99.90;;;;;;4992430;28;20044;-92
2023/04/12 10:30:58;;;;;;;14.27;3.30;;;12.90;99.90;;;;;;5011636;28;20054;-92
2023/04/12 10:33:30;;;;;;;20.63;3.40;;;12.80;99.90;;;;;;5000975;28;20113;-93
2023/04/12 10:36:11;;;;;;;10.98;2.58;;;13.10;99.90;;;;;;4993403;28;20560;-93
2023/04/12 10:39:09;;;;;;;16.67;3.83;;;12.10;99.90;;;;;;4993952;28;20118;-93
2023/04/12 10:41:56;;;;;;;17.45;3.00;;;12.20;99.90;;;;;;4994020;28;20053;-92
2023/04/12 10:44:50;;;;;;;20.63;4.13;;;11.70;99.90;;;;;;4993769;28;20034;-91
2023/04/12 10:48:05;;;;;;;19.90;3.50;;;12.20;99.90;;;;;;4923174;28;20032;-91
2023/04/12 10:50:38;;;;;;;7.25;2.47;;;12.20;99.90;;;;;;4995209;28;20022;-92
2023/04/12 10:56:40;;;;;;;18.17;2.78;;;11.40;99.90;;;;;;4995008;28;20061;-91
2023/04/12 10:59:29;;;;;;;13.73;2.67;;;12.10;99.90;;;;;;4948085;28;1189011;-90
2023/04/12 11:02:09;;;;;;;13.93;2.63;;;12.40;99.90;;;;;;4995166;28;20516;-90
2023/04/12 11:05:09;;;;;;;15.70;2.53;;;12.00;99.90;;;;;;4979081;28;20118;-88
2023/04/12 11:07:40;;;;;;;9.48;2.05;;;12.00;99.90;;;;;;4979827;28;20038;-90
2023/04/12 11:13:09;;;;;;;12.82;2.20;;;12.10;99.90;;;;;;4975790;28;20098;-93
2023/04/12 11:15:55;;;;;;;7.97;1.90;;;13.10;99.90;;;;;;4975244;28;20114;-91
2023/04/12 11:18:36;;;;;;;9.35;2.25;;;12.20;99.90;;;;;;4974895;28;20030;-91
2023/04/12 11:21:11;;;;;;;9.27;1.80;;;13.20;99.90;;;;;;4978495;28;20071;-90
2023/04/12 11:23:46;;;;;;;12.07;2.35;;;12.40;99.90;;;;;;4987059;28;20111;-92
2023/04/12 11:26:33;;;;;;;13.65;2.78;;;12.20;99.90;;;;;;4993612;28;20041;-91
2023/04/12 11:29:43;;;;;;;11.30;2.00;;;12.30;99.90;;;;;;4978847;28;20093;-93
2023/04/12 11:32:26;;;;;;;10.95;1.20;;;12.30;99.90;;;;;;4985734;28;20045;-91
2023/04/12 11:35:29;;;;;;;11.93;1.60;;;12.80;99.90;;;;;;4977949;28;20117;-93
2023/04/12 11:37:56;;;;;;;7.03;1.40;;;12.10;99.90;;;;;;4935743;28;20055;-92
2023/04/12 11:41:09;;;;;;;5.38;1.10;;;12.70;99.90;;;;;;4975466;28;20019;-91
2023/04/12 11:44:05;;;;;;;4.53;1.35;;;11.50;97.20;;;;;;4973299;28;20035;-91
2023/04/12 11:56:13;;;;;;;7.75;1.83;;;12.60;99.90;;;;;;5015344;28;20048;-92
2023/04/12 12:05:06;;;;;;;4.95;1.25;;;11.80;99.00;;;;;;4921709;28;20043;-91
2023/04/12 12:07:52;;;;;;;4.20;1.10;;;11.30;98.70;;;;;;4975072;28;20062;-92
2023/04/12 12:20:50;;;;;;;10.15;1.48;;;11.60;99.90;;;;;;4877465;29;20028;-91
2023/04/12 12:24:15;;;;;;;4.93;1.48;;;11.70;99.90;;;;;;4858512;29;20041;-91
2023/04/12 12:27:00;;;;;;;11.30;1.55;;;11.70;99.90;;;;;;4860117;29;20034;-91
2023/04/12 12:29:55;;;;;;;4.70;1.33;;;12.70;99.90;;;;;;4930826;23;20410;-91
2023/04/12 12:32:58;;;;;;;5.80;1.38;;;11.10;99.70;;;;;;4955128;28;20047;-90
2023/04/12 12:35:39;;;;;;;9.30;1.92;;;10.60;99.90;;;;;;4974289;28;20054;-91
2023/04/12 12:38:20;;;;;;;16.17;2.30;;;12.70;99.90;;;;;;4978645;28;20038;-91
2023/04/12 12:40:55;;;;;;;9.88;1.60;;;12.90;99.90;;;;;;4994849;28;20030;-91
2023/04/12 12:43:33;;;;;;;10.18;2.45;;;10.20;99.90;;;;;;4992747;28;20096;-92
2023/04/12 12:45:58;;;;;;;3.70;1.33;;;12.40;99.90;;;;;;4978778;28;20043;-90
2023/04/12 12:48:43;;;;;;;8.60;1.77;;;12.40;99.90;;;;;;4973348;28;20502;-90
2023/04/12 12:51:21;;;;;;;3.47;1.08;;;12.10;99.90;;;;;;4975040;28;20026;-91
2023/04/12 12:53:47;;;;;;;5.07;1.38;;;11.70;99.90;;;;;;4974629;28;20019;-91
2023/04/12 12:56:18;;;;;;;4.93;1.73;;;12.10;99.90;;;;;;4973631;28;20031;-88
2023/04/12 12:58:44;;;;;;;5.28;1.58;;;12.20;99.90;;;;;;4974430;28;20042;-89
2023/04/12 13:01:40;;;;;;;6.38;1.60;;;11.40;99.90;;;;;;4973052;28;20118;-89
2023/04/12 13:04:17;;;;;;;6.13;1.33;;;11.50;99.90;;;;;;4972052;28;20030;-89
2023/04/12 13:07:14;;;;;;;;;;;;;;;;;;;;;
2023/04/12 13:09:49;;;;;;;9.77;1.98;;;11.70;99.90;;;;;;4938457;28;20045;-89
2023/04/12 13:16:15;;;;;;;7.93;1.80;;;11.50;99.90;;;;;;4845437;29;20111;-92
2023/04/12 13:19:06;;;;;;;10.65;2.42;;;12.80;99.90;;;;;;4880357;28;20580;-91
2023/04/12 13:25:19;;;;;;;9.07;1.15;;;11.90;99.90;;;;;;4951214;29;20038;-89
2023/04/12 13:31:04;;;;;;;7.18;1.60;;;12.00;99.90;;;;;;5331833;22;20381;-89
2023/04/12 13:33:48;;;;;;;8.27;1.52;;;11.10;99.90;;;;;;4954562;29;20035;-89
2023/04/12 13:36:31;;;;;;;3.60;1.17;;;13.30;99.90;;;;;;4954173;29;20037;-89
2023/04/12 13:39:12;;;;;;;9.25;1.67;;;11.30;99.90;;;;;;4974541;28;20117;-87
2023/04/12 13:41:38;;;;;;;4.35;1.48;;;12.10;99.90;;;;;;4973986;28;20153;-88
2023/04/12 13:50:31;;;;;;;3.65;0.90;;;12.00;99.90;;;;;;4993994;22;20059;-89
2023/04/12 13:53:06;;;;;;;4.13;0.80;;;12.80;99.90;;;;;;4969358;23;20046;-88
2023/04/12 13:55:58;;;;;;;1.50;0.70;;;12.80;99.90;;;;;;4974006;28;20042;-89
2023/04/12 13:58:42;;;;;;;6.70;1.30;;;11.90;99.90;;;;;;4946016;28;20129;-89